Accueil
METAR-TAF:

METAR-TAF

Aéroports :

Odiham, Angleterre

latitude: 51-14N, longitude: 000-57W, altitude: 123 m

Observation

Le bulletin a été fait il y a 1 heure et 9 minutes, à 00:50 UTC
Vent 10 kt de sud-ouest
Température 16°C
Humidité 82%
Pression 1016 hPa
Visibilité 10 km ou plus

METAR: EGVO 240050Z AUTO 23010KT 9999 SCT018/// SCT023/// BKN044/// 16/13 Q1016

Heure: 02:59 (01:59 UTC)

Prévision

Le bulletin a été fait il y a 12 heures et 29 minutes, à 13:30 UTC
Prévision valable du 23 à 15 UTC au 24 à 03 UTC
Vent 15 kt de ouest/sud-ouest
Visibilité 10 km ou plus
Nuages épars à une hauteur de 3000 ft
Probabilité 30%
du 23 à 23 UTC au 23 à 24 UTC
Nuages fragmentés à une hauteur de 2000 ft
Probabilité 30% :
Temporairement
du 24 à 00 UTC au 24 à 03 UTC
Nuages épars à une hauteur de 1000 ft

TAF: EGVO 231330Z 2315/2403 25015KT 9999 SCT030 PROB30 2323/2324 BKN020 PROB30 TEMPO 2400/2403 SCT010

Observations et prévisions météorologiques de plus de 4000 aéroports (messages METAR et TAF).

Les stations disponibles sont représentées par des disques jaunes et rouges sur la carte.

Passer la souris dessus pour voir le nom de la station.

Cliquer dessus pour voir les observations et prévisions météorologiques.

Pour changer de carte: cliquez sur les boutons verts avec une croix noire pour zoomer, sur le bouton vert avec un tiret pour effectuer un zoom arrière, ou sur les flèches vertes pour les cartes adjacentes.


METAR-TAF: